Terminal Aerodrome Forecast
Issued by NWS

Home | Current Version | Previous Version | Text Only | Print | Product List | Glossary On
Versions: 1 2 3 4 5 6 7 8 9 10 11 12 13 14 15 16 17 18 19 20 21 22 23 24 25 26 27 28 29 30 31 32 33 34 35 36 37 38 39 40 41 42 43 44 45 46 47 48 49 50
000
FTUS43 KDMX 270248 AAB
TAFMCW
TAF AMD
KMCW 270248Z 2703/2724 34005KT 2SM BR BKN003 OVC007
     FM271500 01007KT 6SM BR OVC004
     FM271700 01006KT P6SM BKN007
     FM271900 01008KT P6SM BKN013
     FM272000 01007KT P6SM BKN022=

USA.gov is the U.S. government's official web portal to all federal, state and local government web resources and services.